Time;durP1;ratioP1;P1;durP2;ratioP2;P2;SDS_P1;SDS_P2;PMS_P1;PMS_P2;Temp;Humidity;BMP_temperature;BMP_pressure;BME280_temperature;BME280_humidity;BME280_pressure;Samples;Min_cycle;Max_cycle;Signal;HPM_P1;HPM_P2
2022/07/30 00:00:16;;;;;;;2.55;1.50;;;22.60;87.10;;;;;;5002491;28;20058;-63
2022/07/30 00:02:42;;;;;;;6.97;1.48;;;22.60;87.20;;;;;;4984852;28;20153;-63
2022/07/30 00:05:07;;;;;;;2.25;1.50;;;22.60;87.40;;;;;;5002432;28;20050;-63
2022/07/30 00:07:34;;;;;;;4.72;1.60;;;22.50;87.70;;;;;;5001528;28;20022;-63
2022/07/30 00:10:00;;;;;;;3.25;1.50;;;22.50;87.70;;;;;;5003590;28;20029;-63
2022/07/30 00:12:26;;;;;;;1.80;1.50;;;22.50;87.90;;;;;;5001284;28;20076;-62
2022/07/30 00:14:51;;;;;;;2.35;1.40;;;22.50;88.00;;;;;;5001939;28;20469;-63
2022/07/30 00:17:17;;;;;;;9.23;1.60;;;22.50;88.20;;;;;;4998982;28;20092;-63
2022/07/30 00:19:42;;;;;;;1.90;1.20;;;22.50;88.20;;;;;;4999191;28;20121;-63
2022/07/30 00:22:08;;;;;;;2.13;1.17;;;22.50;88.30;;;;;;5003103;28;20120;-63
2022/07/30 00:24:33;;;;;;;2.30;1.42;;;22.50;88.40;;;;;;5003021;28;20026;-63
2022/07/30 00:26:59;;;;;;;2.05;1.48;;;22.50;88.50;;;;;;5000073;28;20030;-63
2022/07/30 00:29:25;;;;;;;3.50;1.50;;;22.50;88.50;;;;;;4999875;28;20080;-63
2022/07/30 00:31:50;;;;;;;4.50;1.63;;;22.50;88.40;;;;;;5000529;28;20385;-63
2022/07/30 00:34:16;;;;;;;2.53;1.60;;;22.50;88.20;;;;;;4999655;28;20444;-63
2022/07/30 00:36:41;;;;;;;2.95;1.77;;;22.50;88.10;;;;;;5002335;28;20030;-63
2022/07/30 00:39:07;;;;;;;4.10;1.70;;;22.50;88.20;;;;;;5000181;28;20382;-63
2022/07/30 00:41:32;;;;;;;2.45;1.38;;;22.50;88.20;;;;;;4998928;28;20077;-64
2022/07/30 00:43:58;;;;;;;1.98;1.42;;;22.50;88.20;;;;;;4999657;28;20133;-63
2022/07/30 00:46:24;;;;;;;2.13;1.70;;;22.40;88.10;;;;;;4999395;28;20030;-62
2022/07/30 00:48:49;;;;;;;3.25;1.80;;;22.40;88.10;;;;;;5001620;28;20036;-63
2022/07/30 00:51:15;;;;;;;3.80;1.70;;;22.40;88.30;;;;;;5000041;28;20030;-63
2022/07/30 00:53:41;;;;;;;2.13;1.65;;;22.40;88.40;;;;;;5001075;28;20062;-63
2022/07/30 00:56:06;;;;;;;1.60;1.50;;;22.40;88.30;;;;;;5000861;28;20121;-63
2022/07/30 00:58:32;;;;;;;1.77;1.42;;;22.50;88.20;;;;;;4999642;28;20120;-63
2022/07/30 01:00:57;;;;;;;2.08;1.58;;;22.40;88.20;;;;;;4984147;28;20084;-62
2022/07/30 01:03:23;;;;;;;4.22;1.70;;;22.40;88.20;;;;;;4999443;28;20033;-63
2022/07/30 01:05:48;;;;;;;3.70;1.80;;;22.40;88.10;;;;;;4997397;28;20032;-62
2022/07/30 01:08:14;;;;;;;3.92;1.60;;;22.40;88.10;;;;;;5000279;28;20030;-63
2022/07/30 01:10:39;;;;;;;4.50;1.95;;;22.40;88.10;;;;;;4999649;28;20156;-63
2022/07/30 01:13:05;;;;;;;2.78;1.67;;;22.40;88.00;;;;;;4999765;28;20099;-63
2022/07/30 01:15:31;;;;;;;3.95;1.65;;;22.40;88.00;;;;;;4999842;28;20034;-63
2022/07/30 01:17:58;;;;;;;4.45;1.70;;;22.40;88.00;;;;;;5000654;28;20393;-62
2022/07/30 01:20:47;;;;;;;3.95;1.67;;;22.40;88.00;;;;;;4983899;28;20044;-63
2022/07/30 01:23:34;;;;;;;2.78;1.90;;;22.30;88.00;;;;;;4983448;28;20310;-63
2022/07/30 01:26:10;;;;;;;1.90;1.50;;;22.40;88.20;;;;;;5000622;28;20417;-63
2022/07/30 01:28:37;;;;;;;1.90;1.60;;;22.40;88.20;;;;;;5001663;28;20485;-63
2022/07/30 01:31:03;;;;;;;1.80;1.35;;;22.30;88.20;;;;;;4999476;28;20040;-62
2022/07/30 01:33:29;;;;;;;4.40;1.35;;;22.30;88.30;;;;;;5014279;28;20037;-63
2022/07/30 01:35:54;;;;;;;3.38;1.50;;;22.40;88.30;;;;;;4981540;28;20117;-63
2022/07/30 01:38:21;;;;;;;1.70;1.38;;;22.30;88.40;;;;;;4982115;28;20065;-62
2022/07/30 01:40:48;;;;;;;3.67;1.50;;;22.30;88.40;;;;;;4998493;28;20416;-63
2022/07/30 01:43:13;;;;;;;1.90;1.50;;;22.30;88.20;;;;;;5014871;28;20026;-63
2022/07/30 01:45:39;;;;;;;1.92;1.65;;;22.30;88.30;;;;;;4983668;28;20033;-63
2022/07/30 01:48:05;;;;;;;2.17;1.42;;;22.30;88.00;;;;;;4997751;28;20041;-63
2022/07/30 01:50:30;;;;;;;3.55;1.52;;;22.30;87.90;;;;;;4997940;28;20056;-63
2022/07/30 01:52:56;;;;;;;2.85;1.38;;;22.20;87.80;;;;;;4983578;28;20513;-63
2022/07/30 01:55:24;;;;;;;5.03;1.65;;;22.20;87.80;;;;;;4981557;28;20099;-63
2022/07/30 01:57:50;;;;;;;1.23;1.13;;;22.20;87.80;;;;;;4997894;28;20030;-63
2022/07/30 02:00:16;;;;;;;4.78;1.70;;;22.20;87.80;;;;;;4997687;28;20492;-63
2022/07/30 02:02:41;;;;;;;1.50;1.30;;;22.20;87.70;;;;;;4996177;28;20034;-63
2022/07/30 02:05:07;;;;;;;3.45;1.60;;;22.30;87.70;;;;;;4981188;28;20022;-62
2022/07/30 02:07:41;;;;;;;7.82;1.52;;;22.20;87.70;;;;;;4999489;28;20061;-63
2022/07/30 02:10:14;;;;;;;2.30;1.40;;;22.20;87.70;;;;;;4997408;28;20033;-62
2022/07/30 02:12:45;;;;;;;1.40;1.30;;;22.20;87.70;;;;;;5012848;28;20437;-63
2022/07/30 02:15:26;;;;;;;2.40;1.88;;;22.20;87.70;;;;;;4981510;28;20104;-62
2022/07/30 02:18:01;;;;;;;2.05;1.30;;;22.20;87.70;;;;;;4997484;28;20029;-63
2022/07/30 02:20:28;;;;;;;3.33;1.70;;;22.10;87.50;;;;;;4999878;28;20026;-63
2022/07/30 02:22:56;;;;;;;3.17;1.45;;;22.10;87.50;;;;;;4981012;28;20022;-63
2022/07/30 02:25:21;;;;;;;6.32;1.75;;;22.10;87.50;;;;;;4998451;28;20030;-63
2022/07/30 02:27:49;;;;;;;52.28;6.78;;;22.20;87.40;;;;;;4980084;28;20348;-62
2022/07/30 02:30:15;;;;;;;37.83;4.45;;;22.10;87.30;;;;;;5014666;28;20018;-63
2022/07/30 02:32:41;;;;;;;20.65;3.20;;;22.10;87.30;;;;;;5014139;28;20068;-63
2022/07/30 02:35:13;;;;;;;22.77;3.08;;;22.10;87.30;;;;;;4981091;28;20030;-63
2022/07/30 02:37:39;;;;;;;29.02;3.55;;;22.10;87.20;;;;;;4998195;28;20030;-63
2022/07/30 02:40:05;;;;;;;13.75;3.00;;;22.10;87.20;;;;;;5013516;28;20496;-62
2022/07/30 02:42:30;;;;;;;16.10;3.13;;;22.10;87.20;;;;;;4997665;28;20034;-63
2022/07/30 02:44:56;;;;;;;13.52;2.60;;;22.10;87.40;;;;;;4980343;28;20057;-63
2022/07/30 02:47:22;;;;;;;11.32;2.72;;;22.00;87.30;;;;;;4982746;28;20034;-63
2022/07/30 02:49:47;;;;;;;24.30;3.22;;;22.00;87.40;;;;;;5013171;28;20112;-63
2022/07/30 02:52:14;;;;;;;18.40;2.78;;;22.00;87.40;;;;;;4999818;28;20377;-63
2022/07/30 02:54:40;;;;;;;16.33;2.95;;;22.00;87.50;;;;;;4981046;28;20064;-63
2022/07/30 02:57:06;;;;;;;9.93;2.70;;;22.00;87.70;;;;;;4996552;28;20037;-63
2022/07/30 02:59:31;;;;;;;8.98;2.50;;;22.00;87.70;;;;;;4999204;28;20531;-63
2022/07/30 03:01:57;;;;;;;12.98;2.70;;;22.00;87.90;;;;;;4997315;28;20076;-63
2022/07/30 03:04:22;;;;;;;7.78;2.17;;;22.00;87.90;;;;;;4981314;28;20113;-63
2022/07/30 03:06:48;;;;;;;9.25;2.30;;;21.90;87.90;;;;;;4982214;28;20147;-63
2022/07/30 03:09:15;;;;;;;6.65;2.15;;;21.90;88.00;;;;;;4999258;28;20048;-63
2022/07/30 03:11:40;;;;;;;8.20;2.10;;;21.90;88.00;;;;;;4982338;28;22484;-62
2022/07/30 03:14:07;;;;;;;2.97;1.65;;;21.90;88.00;;;;;;4998745;28;20030;-63
2022/07/30 03:16:33;;;;;;;9.98;2.25;;;21.90;88.00;;;;;;4998548;28;20041;-63
2022/07/30 03:19:01;;;;;;;7.72;1.92;;;21.90;88.00;;;;;;4980146;28;20481;-63
2022/07/30 03:21:26;;;;;;;13.77;2.65;;;21.80;88.00;;;;;;4996204;28;20045;-62
2022/07/30 03:23:53;;;;;;;6.78;2.22;;;21.80;88.00;;;;;;4997733;28;20022;-62
2022/07/30 03:26:18;;;;;;;9.32;2.22;;;21.80;88.00;;;;;;4999482;28;20025;-63
2022/07/30 03:28:44;;;;;;;16.23;2.45;;;21.80;87.90;;;;;;4997132;28;20363;-63
2022/07/30 03:31:10;;;;;;;9.45;2.05;;;21.80;88.10;;;;;;4983325;28;20421;-63
2022/07/30 03:33:36;;;;;;;7.57;2.65;;;21.80;88.10;;;;;;4998318;28;20604;-63
2022/07/30 03:36:02;;;;;;;10.35;2.10;;;21.80;88.20;;;;;;5001382;28;20030;-62
2022/07/30 03:38:27;;;;;;;8.55;2.55;;;21.70;88.20;;;;;;4999714;28;20386;-63
2022/07/30 03:40:53;;;;;;;10.32;2.45;;;21.70;88.30;;;;;;4982660;28;20038;-63
2022/07/30 03:43:18;;;;;;;10.60;2.45;;;21.70;88.30;;;;;;4984921;28;20096;-62
2022/07/30 03:45:44;;;;;;;8.52;2.03;;;21.80;88.40;;;;;;4998615;28;20551;-63
2022/07/30 03:48:10;;;;;;;4.20;1.88;;;21.70;88.30;;;;;;4997667;28;20037;-63
2022/07/30 03:50:36;;;;;;;7.97;2.40;;;21.70;88.30;;;;;;5003323;28;20049;-63
2022/07/30 03:53:05;;;;;;;6.35;2.15;;;21.70;88.40;;;;;;5018447;28;20460;-63
2022/07/30 03:55:31;;;;;;;5.13;2.33;;;21.60;88.30;;;;;;4985560;28;20405;-63
2022/07/30 03:57:56;;;;;;;5.00;2.05;;;21.60;88.30;;;;;;4996441;28;20561;-63
2022/07/30 04:00:22;;;;;;;4.63;1.77;;;21.60;88.80;;;;;;4983821;28;20120;-63
2022/07/30 04:02:48;;;;;;;3.80;2.05;;;21.60;88.30;;;;;;5000828;28;20522;-63
2022/07/30 04:05:14;;;;;;;7.75;1.98;;;21.60;88.30;;;;;;5003805;28;20073;-63
2022/07/30 04:07:39;;;;;;;3.00;1.77;;;21.60;88.30;;;;;;5000116;28;20025;-62
2022/07/30 04:10:06;;;;;;;8.23;1.90;;;21.50;88.40;;;;;;5000632;28;20034;-63
2022/07/30 04:12:31;;;;;;;4.07;2.05;;;21.50;88.60;;;;;;4999353;28;20095;-63
2022/07/30 04:14:57;;;;;;;6.18;1.80;;;21.50;88.70;;;;;;4984466;28;20125;-63
2022/07/30 04:17:50;;;;;;;3.60;1.88;;;21.50;88.90;;;;;;4983118;28;20121;-63
2022/07/30 04:20:21;;;;;;;6.72;1.70;;;21.40;88.90;;;;;;4998609;28;20052;-63
2022/07/30 04:22:46;;;;;;;2.78;1.85;;;21.40;89.10;;;;;;5017007;28;20073;-63
2022/07/30 04:25:12;;;;;;;5.45;1.73;;;21.40;89.30;;;;;;5016876;28;20066;-63
2022/07/30 04:27:37;;;;;;;4.75;1.80;;;21.40;89.20;;;;;;5001750;28;20037;-63
2022/07/30 04:30:03;;;;;;;3.35;1.73;;;21.30;89.30;;;;;;4984984;28;20033;-63
2022/07/30 04:32:29;;;;;;;2.53;1.60;;;21.40;89.30;;;;;;4998822;28;20034;-63
2022/07/30 04:34:54;;;;;;;3.20;1.70;;;21.40;89.50;;;;;;4996407;28;20552;-63
2022/07/30 04:37:22;;;;;;;6.18;1.88;;;21.30;89.50;;;;;;4999836;28;20560;-63
2022/07/30 04:39:50;;;;;;;3.10;1.50;;;21.30;89.50;;;;;;4999202;28;20056;-62
2022/07/30 04:42:15;;;;;;;2.97;1.50;;;21.30;89.50;;;;;;4985546;28;20041;-63
2022/07/30 04:44:41;;;;;;;2.08;1.58;;;21.30;89.60;;;;;;4999446;28;20029;-63
2022/07/30 04:47:07;;;;;;;3.88;1.75;;;21.30;89.50;;;;;;4999850;28;20117;-63
2022/07/30 04:49:33;;;;;;;6.47;1.85;;;21.30;89.50;;;;;;5000796;28;20108;-63
2022/07/30 04:51:58;;;;;;;2.38;1.77;;;21.30;89.50;;;;;;4982042;28;20167;-62
2022/07/30 04:54:24;;;;;;;1.92;1.70;;;21.40;89.50;;;;;;5001381;28;20034;-63
2022/07/30 04:56:49;;;;;;;2.30;1.55;;;21.30;89.50;;;;;;5000704;28;20025;-62
2022/07/30 04:59:16;;;;;;;4.40;1.60;;;21.20;89.50;;;;;;4998366;28;20029;-62
2022/07/30 05:01:41;;;;;;;2.10;1.60;;;21.20;89.50;;;;;;4998375;28;20489;-62
2022/07/30 05:04:07;;;;;;;3.63;1.27;;;21.20;89.40;;;;;;4982257;28;20079;-63
2022/07/30 05:06:33;;;;;;;4.57;1.60;;;21.20;89.50;;;;;;4999731;28;20083;-63
2022/07/30 05:08:58;;;;;;;2.50;1.90;;;21.20;89.40;;;;;;5000979;28;20030;-63
2022/07/30 05:11:24;;;;;;;2.50;1.50;;;21.20;89.50;;;;;;4985122;28;20034;-63
2022/07/30 05:13:50;;;;;;;1.83;1.40;;;21.20;89.60;;;;;;4999374;28;20066;-63
2022/07/30 05:16:15;;;;;;;6.30;2.13;;;21.20;89.60;;;;;;5000272;28;20041;-63
2022/07/30 05:18:41;;;;;;;1.92;1.60;;;21.20;89.80;;;;;;4981355;28;20041;-62
2022/07/30 05:21:06;;;;;;;3.20;1.40;;;21.20;89.10;;;;;;5002550;28;20122;-63
2022/07/30 05:23:32;;;;;;;2.88;1.63;;;21.20;89.80;;;;;;4999827;28;20133;-63
2022/07/30 05:25:57;;;;;;;1.77;1.67;;;21.20;89.70;;;;;;5015364;28;20065;-63
2022/07/30 05:28:25;;;;;;;1.55;1.42;;;21.20;89.80;;;;;;4998329;28;20041;-62
2022/07/30 05:30:51;;;;;;;3.65;1.63;;;21.20;89.80;;;;;;4998777;28;20036;-62
2022/07/30 05:33:17;;;;;;;2.35;1.50;;;21.20;89.70;;;;;;4996770;28;20033;-63
2022/07/30 05:35:42;;;;;;;1.70;1.60;;;21.20;89.80;;;;;;4998978;28;20080;-63
2022/07/30 05:38:08;;;;;;;2.67;1.65;;;21.20;90.00;;;;;;4996395;28;20112;-63
2022/07/30 05:40:33;;;;;;;2.38;1.48;;;21.20;90.00;;;;;;4997248;28;20115;-63
2022/07/30 05:42:59;;;;;;;3.53;1.58;;;21.20;90.00;;;;;;4999135;28;20030;-63
2022/07/30 05:45:25;;;;;;;2.85;1.50;;;21.20;90.00;;;;;;5002374;28;20030;-63
2022/07/30 05:47:50;;;;;;;4.30;1.58;;;21.10;90.00;;;;;;4995837;28;20254;-62
2022/07/30 05:50:16;;;;;;;3.20;1.83;;;21.10;90.00;;;;;;4998023;28;20037;-63
2022/07/30 05:52:41;;;;;;;1.80;1.50;;;21.00;89.90;;;;;;4999860;28;20442;-63
2022/07/30 05:55:08;;;;;;;2.08;1.60;;;21.10;89.90;;;;;;4998269;28;20046;-63
2022/07/30 05:57:36;;;;;;;2.83;1.25;;;21.10;90.00;;;;;;4998104;28;20558;-64
2022/07/30 06:00:04;;;;;;;1.70;1.40;;;21.20;89.90;;;;;;5001104;28;20040;-65
2022/07/30 06:02:30;;;;;;;2.28;1.70;;;21.10;89.80;;;;;;4997923;28;20052;-63
2022/07/30 06:04:56;;;;;;;2.58;1.30;;;21.10;89.80;;;;;;4999033;28;20029;-64
2022/07/30 06:07:21;;;;;;;4.22;1.75;;;21.20;89.70;;;;;;4996958;28;20049;-62
2022/07/30 06:09:47;;;;;;;1.60;1.50;;;21.20;89.70;;;;;;4998210;28;20022;-63
2022/07/30 06:12:13;;;;;;;2.53;1.35;;;21.20;89.70;;;;;;5000634;28;20022;-63
2022/07/30 06:14:38;;;;;;;2.88;1.75;;;21.20;89.60;;;;;;4998309;28;20030;-63
2022/07/30 06:17:04;;;;;;;2.35;1.58;;;21.20;89.60;;;;;;4998007;28;20100;-63
2022/07/30 06:19:29;;;;;;;3.80;1.48;;;21.20;89.60;;;;;;4997596;28;20030;-62
2022/07/30 06:21:55;;;;;;;4.60;1.80;;;21.20;89.50;;;;;;4998057;28;20030;-63
2022/07/30 06:24:21;;;;;;;2.60;1.60;;;21.20;89.40;;;;;;4999033;28;20080;-63
2022/07/30 06:26:46;;;;;;;1.50;1.40;;;21.30;89.30;;;;;;4980193;28;20401;-63
2022/07/30 06:29:12;;;;;;;4.97;1.70;;;21.30;89.20;;;;;;4999212;28;20452;-63
2022/07/30 06:31:38;;;;;;;1.75;1.60;;;21.30;89.30;;;;;;4996182;28;20473;-63
2022/07/30 06:34:04;;;;;;;2.63;1.60;;;21.30;89.30;;;;;;4999382;28;20030;-63
2022/07/30 06:36:30;;;;;;;1.67;1.40;;;21.30;89.40;;;;;;5014505;28;20367;-63
2022/07/30 06:38:55;;;;;;;5.15;1.75;;;21.30;89.40;;;;;;5000066;28;20037;-62
2022/07/30 06:41:21;;;;;;;1.70;1.50;;;21.30;89.30;;;;;;5000395;28;20204;-63
2022/07/30 06:43:46;;;;;;;2.35;1.55;;;21.30;89.30;;;;;;4999956;28;20033;-62
2022/07/30 06:46:12;;;;;;;1.50;1.35;;;21.30;89.30;;;;;;4998269;28;20125;-63
2022/07/30 06:48:37;;;;;;;3.72;1.60;;;21.30;89.30;;;;;;4996062;28;20037;-62
2022/07/30 06:51:03;;;;;;;3.75;1.73;;;21.40;89.20;;;;;;5014928;28;20482;-63
2022/07/30 06:53:28;;;;;;;1.90;1.60;;;21.30;89.10;;;;;;5000127;28;20389;-63
2022/07/30 06:55:54;;;;;;;1.90;1.70;;;21.30;89.10;;;;;;4998344;28;20512;-63
2022/07/30 06:58:19;;;;;;;2.90;1.67;;;21.40;89.10;;;;;;4999335;28;20033;-63
2022/07/30 07:00:45;;;;;;;1.90;1.35;;;21.40;89.00;;;;;;4997171;28;20045;-63
2022/07/30 07:03:10;;;;;;;2.88;1.65;;;21.40;88.80;;;;;;4998365;28;20026;-62
2022/07/30 07:05:36;;;;;;;4.03;1.90;;;21.40;88.70;;;;;;5005097;28;20393;-63
2022/07/30 07:08:02;;;;;;;2.33;1.63;;;21.40;88.70;;;;;;5003839;28;20117;-63
2022/07/30 07:10:27;;;;;;;5.45;1.75;;;21.50;88.60;;;;;;5003076;28;20022;-63
2022/07/30 07:12:53;;;;;;;6.38;1.75;;;21.50;88.40;;;;;;5002845;28;20045;-62
2022/07/30 07:15:19;;;;;;;1.83;1.52;;;21.50;88.20;;;;;;5002215;28;20022;-62
2022/07/30 07:17:45;;;;;;;2.03;1.80;;;21.50;88.10;;;;;;4984171;28;20458;-63
2022/07/30 07:20:10;;;;;;;2.92;1.73;;;21.60;88.00;;;;;;5002473;28;20038;-62
2022/07/30 07:22:36;;;;;;;3.25;1.67;;;21.60;87.90;;;;;;5001858;28;20030;-63
2022/07/30 07:25:01;;;;;;;3.53;2.00;;;21.60;87.70;;;;;;5000570;28;20040;-63
2022/07/30 07:27:27;;;;;;;1.92;1.70;;;21.60;87.60;;;;;;5000006;28;20383;-63
2022/07/30 07:29:52;;;;;;;2.67;1.80;;;21.60;87.40;;;;;;4997788;28;20519;-63
2022/07/30 07:32:18;;;;;;;1.70;1.60;;;21.70;88.10;;;;;;5001653;28;20096;-63
2022/07/30 07:34:43;;;;;;;3.92;1.60;;;21.60;87.10;;;;;;4998208;28;20783;-63
2022/07/30 07:37:09;;;;;;;1.90;1.60;;;21.70;86.90;;;;;;5002011;28;22136;-63
2022/07/30 07:39:34;;;;;;;2.85;2.00;;;21.70;86.80;;;;;;4998311;28;20057;-63
2022/07/30 07:42:00;;;;;;;5.38;1.77;;;21.70;86.80;;;;;;5000294;28;20069;-62
2022/07/30 07:44:25;;;;;;;6.35;1.50;;;21.70;86.70;;;;;;5002589;28;20109;-63
2022/07/30 07:46:51;;;;;;;1.50;1.40;;;21.70;86.60;;;;;;5003128;28;20030;-63
2022/07/30 07:49:16;;;;;;;1.80;1.55;;;21.70;86.50;;;;;;5000346;28;20037;-63
2022/07/30 07:51:42;;;;;;;1.50;1.40;;;21.70;86.30;;;;;;4997116;28;20301;-62
2022/07/30 07:54:07;;;;;;;2.28;1.77;;;21.70;86.10;;;;;;4998791;28;20084;-62
2022/07/30 07:56:33;;;;;;;3.17;1.70;;;21.70;86.10;;;;;;5001681;28;20064;-62
2022/07/30 07:58:58;;;;;;;3.28;1.70;;;21.70;86.00;;;;;;5003785;28;20121;-62
2022/07/30 08:01:24;;;;;;;5.38;2.13;;;21.80;86.00;;;;;;5001688;28;20926;-62
2022/07/30 08:03:49;;;;;;;4.63;2.13;;;21.70;85.90;;;;;;5001759;28;20477;-63
2022/07/30 08:06:15;;;;;;;1.98;1.60;;;21.70;85.30;;;;;;5002010;28;20053;-62
2022/07/30 08:08:41;;;;;;;2.38;1.73;;;21.80;85.30;;;;;;4998533;28;20024;-62
2022/07/30 08:11:06;;;;;;;3.58;1.80;;;21.70;85.00;;;;;;5001140;28;20045;-62
2022/07/30 08:13:32;;;;;;;3.83;2.03;;;21.70;84.60;;;;;;5001432;28;20044;-62
2022/07/30 08:15:58;;;;;;;2.80;1.90;;;21.80;84.50;;;;;;4998489;28;20036;-62
2022/07/30 08:18:24;;;;;;;5.68;1.85;;;21.70;84.10;;;;;;4981585;28;20033;-63
2022/07/30 08:20:50;;;;;;;4.07;2.30;;;21.70;84.00;;;;;;4998714;28;20057;-62
2022/07/30 08:23:16;;;;;;;3.58;1.83;;;21.70;83.90;;;;;;4999592;28;20112;-62
2022/07/30 08:25:42;;;;;;;2.53;1.83;;;21.70;84.00;;;;;;4999815;28;20028;-62
2022/07/30 08:28:07;;;;;;;7.97;2.70;;;21.70;83.90;;;;;;4996097;28;20223;-62
2022/07/30 08:30:33;;;;;;;3.60;2.05;;;21.80;83.90;;;;;;4997760;28;20492;-62
2022/07/30 08:32:58;;;;;;;8.73;2.55;;;21.80;83.80;;;;;;4999903;28;20096;-62
2022/07/30 08:35:24;;;;;;;7.85;2.30;;;21.80;83.80;;;;;;4998271;28;20109;-62
2022/07/30 08:37:49;;;;;;;11.07;2.97;;;21.90;83.80;;;;;;4999113;28;20034;-62
2022/07/30 08:40:17;;;;;;;9.38;2.80;;;21.90;83.70;;;;;;4998595;28;20570;-62
2022/07/30 08:42:43;;;;;;;4.53;2.20;;;21.90;83.70;;;;;;4988511;28;20037;-63
2022/07/30 08:45:09;;;;;;;10.00;2.55;;;21.90;83.90;;;;;;5028502;28;20041;-62
2022/07/30 08:47:34;;;;;;;6.85;2.58;;;21.90;84.20;;;;;;5012455;28;20038;-63
2022/07/30 08:50:03;;;;;;;14.95;3.17;;;21.90;83.80;;;;;;5010811;28;20049;-64
2022/07/30 08:52:30;;;;;;;11.23;3.22;;;21.90;83.90;;;;;;4998562;28;20128;-62
2022/07/30 08:54:56;;;;;;;13.63;3.40;;;22.00;83.80;;;;;;4998849;28;20485;-62
2022/07/30 08:57:21;;;;;;;13.55;3.13;;;22.00;83.70;;;;;;4997900;28;20032;-62
2022/07/30 08:59:47;;;;;;;11.63;2.67;;;22.00;83.60;;;;;;5011392;28;20088;-63
2022/07/30 09:02:13;;;;;;;22.75;3.30;;;22.10;83.60;;;;;;5029038;28;20072;-62
2022/07/30 09:04:38;;;;;;;11.00;3.17;;;22.10;83.50;;;;;;4998826;28;20096;-62
2022/07/30 09:07:04;;;;;;;15.95;3.63;;;22.00;83.30;;;;;;4999067;28;20103;-62
2022/07/30 09:09:29;;;;;;;18.67;3.78;;;22.10;82.90;;;;;;4994507;28;20410;-62
2022/07/30 09:11:55;;;;;;;12.48;3.40;;;22.10;82.40;;;;;;4996880;28;20421;-62
2022/07/30 09:14:20;;;;;;;13.75;3.13;;;22.20;82.30;;;;;;4996256;28;20482;-62
2022/07/30 09:16:46;;;;;;;11.95;3.25;;;22.20;82.20;;;;;;4998420;28;20659;-62
2022/07/30 09:19:13;;;;;;;13.27;3.42;;;22.20;81.70;;;;;;4999307;28;20037;-62
2022/07/30 09:21:39;;;;;;;8.90;2.70;;;22.20;81.30;;;;;;5012268;28;20029;-62
2022/07/30 09:24:08;;;;;;;22.85;3.78;;;22.20;80.80;;;;;;4994836;28;20022;-62
2022/07/30 09:26:58;;;;;;;16.30;2.90;;;22.20;80.60;;;;;;4995463;28;20049;-62
2022/07/30 09:29:27;;;;;;;12.38;3.15;;;22.30;80.30;;;;;;4998748;28;20347;-62
2022/07/30 09:32:06;;;;;;;22.05;4.05;;;22.30;80.10;;;;;;4999565;28;20041;-62
2022/07/30 09:34:33;;;;;;;10.68;3.22;;;22.30;79.80;;;;;;4996209;28;20037;-62
2022/07/30 09:37:00;;;;;;;16.83;3.92;;;22.30;79.30;;;;;;4992465;28;20029;-62
2022/07/30 09:39:39;;;;;;;16.35;4.00;;;22.40;79.10;;;;;;5012426;28;20057;-62
2022/07/30 09:42:19;;;;;;;17.20;3.83;;;22.40;78.50;;;;;;4979890;28;20050;-62
2022/07/30 09:44:45;;;;;;;17.20;4.03;;;22.40;78.00;;;;;;4995363;28;20132;-61
2022/07/30 09:47:29;;;;;;;21.88;4.53;;;22.50;77.60;;;;;;4995968;28;20042;-61
2022/07/30 09:50:13;;;;;;;21.20;3.20;;;22.40;77.30;;;;;;5013916;28;20022;-60
2022/07/30 09:52:43;;;;;;;25.85;3.83;;;22.60;77.10;;;;;;4997041;28;20037;-61
2022/07/30 09:55:09;;;;;;;29.15;5.82;;;22.70;77.10;;;;;;5001159;28;20037;-61
2022/07/30 09:57:35;;;;;;;35.08;5.22;;;22.70;77.20;;;;;;5000239;28;20052;-61
2022/07/30 10:00:21;;;;;;;41.85;5.28;;;22.70;76.70;;;;;;4993583;28;20140;-61
2022/07/30 10:02:46;;;;;;;16.92;4.00;;;22.80;76.30;;;;;;4993597;28;20092;-61
2022/07/30 10:05:13;;;;;;;41.35;6.22;;;22.80;76.10;;;;;;4994463;28;20118;-60
2022/07/30 10:07:39;;;;;;;81.95;9.38;;;22.90;76.10;;;;;;5011948;28;20034;-61
2022/07/30 10:10:05;;;;;;;40.28;7.00;;;22.90;75.60;;;;;;5026703;28;20440;-60
2022/07/30 10:12:31;;;;;;;28.40;4.95;;;22.90;75.20;;;;;;4997194;28;20485;-61
2022/07/30 10:14:57;;;;;;;24.65;4.55;;;22.90;75.00;;;;;;4972928;28;20093;-61
2022/07/30 10:17:22;;;;;;;25.73;4.70;;;23.00;74.70;;;;;;4977570;28;20049;-61
2022/07/30 10:19:48;;;;;;;33.00;4.20;;;23.00;74.40;;;;;;4996391;28;20335;-61
2022/07/30 10:22:13;;;;;;;33.00;5.13;;;23.10;74.30;;;;;;4997996;28;20520;-61
2022/07/30 10:24:39;;;;;;;26.55;3.67;;;23.10;74.10;;;;;;4998773;28;20041;-60
2022/07/30 10:27:04;;;;;;;22.20;4.30;;;23.20;74.00;;;;;;5000194;28;20650;-61
2022/07/30 10:29:30;;;;;;;33.13;5.32;;;23.20;73.50;;;;;;4981355;28;20466;-61
2022/07/30 10:31:56;;;;;;;32.25;4.32;;;23.20;73.10;;;;;;4980945;28;20986;-61
2022/07/30 10:34:21;;;;;;;22.67;4.15;;;23.40;73.00;;;;;;4998331;28;20056;-60
2022/07/30 10:36:51;;;;;;;34.58;5.63;;;23.40;72.80;;;;;;4998054;28;20029;-61
2022/07/30 10:39:20;;;;;;;31.10;4.25;;;23.40;72.20;;;;;;4983702;28;20040;-61
2022/07/30 10:41:47;;;;;;;33.20;4.43;;;23.40;71.70;;;;;;4999016;28;20041;-61
2022/07/30 10:44:15;;;;;;;36.50;5.53;;;23.50;71.50;;;;;;4996232;28;20116;-61
2022/07/30 10:46:54;;;;;;;48.35;6.20;;;23.60;71.30;;;;;;4998644;28;20027;-61
2022/07/30 10:49:20;;;;;;;38.17;5.25;;;23.60;71.10;;;;;;4997479;28;20105;-61
2022/07/30 10:51:47;;;;;;;39.88;6.13;;;23.60;71.20;;;;;;5000177;28;20022;-61
2022/07/30 10:54:38;;;;;;;46.35;5.90;;;23.60;71.50;;;;;;4999513;28;20637;-61
2022/07/30 10:57:14;;;;;;;34.35;5.57;;;23.60;71.80;;;;;;5011378;28;20099;-61
2022/07/30 10:59:48;;;;;;;35.40;5.88;;;23.60;72.00;;;;;;5012541;28;20056;-60
2022/07/30 11:02:14;;;;;;;50.50;6.78;;;23.70;72.10;;;;;;4998689;28;20030;-60
2022/07/30 11:04:40;;;;;;;51.08;7.40;;;23.80;72.20;;;;;;5010767;28;20319;-61
2022/07/30 11:07:32;;;;;;;55.88;6.43;;;23.90;72.00;;;;;;4997408;28;20045;-61
2022/07/30 11:09:59;;;;;;;50.78;7.63;;;24.00;71.90;;;;;;4992079;28;20042;-61
2022/07/30 11:12:40;;;;;;;51.30;7.07;;;24.00;71.70;;;;;;4994777;28;20576;-61
2022/07/30 11:15:06;;;;;;;50.78;7.45;;;24.10;71.70;;;;;;4996234;28;20076;-61
2022/07/30 11:18:04;;;;;;;60.75;7.05;;;24.20;71.50;;;;;;4997681;28;20018;-60
2022/07/30 11:20:32;;;;;;;49.13;7.13;;;24.30;71.20;;;;;;4990701;28;20186;-61
2022/07/30 11:23:24;;;;;;;84.03;8.95;;;24.40;70.80;;;;;;4994757;28;20050;-61
2022/07/30 11:25:50;;;;;;;65.63;9.27;;;24.50;70.10;;;;;;4996321;28;20284;-61
2022/07/30 11:28:36;;;;;;;61.45;7.85;;;24.60;69.80;;;;;;4990204;28;20057;-61
2022/07/30 11:31:01;;;;;;;52.33;8.40;;;24.70;69.20;;;;;;4995939;28;20060;-61
2022/07/30 11:33:27;;;;;;;83.05;9.43;;;24.80;68.70;;;;;;4996514;28;20490;-61
2022/07/30 11:36:06;;;;;;;70.72;8.50;;;24.80;68.50;;;;;;4996174;28;20056;-61
2022/07/30 11:38:55;;;;;;;58.67;8.07;;;24.90;68.30;;;;;;4991853;28;20041;-61
2022/07/30 11:41:20;;;;;;;58.95;7.57;;;24.90;68.20;;;;;;4998985;28;20046;-61
2022/07/30 11:43:46;;;;;;;63.45;8.70;;;24.90;68.10;;;;;;4980548;28;20276;-61
2022/07/30 11:46:12;;;;;;;82.20;10.15;;;24.90;68.10;;;;;;4984042;28;20026;-61
2022/07/30 11:48:55;;;;;;;63.92;6.75;;;24.90;68.00;;;;;;4995713;28;20107;-60
2022/07/30 11:51:20;;;;;;;62.67;6.65;;;24.90;68.00;;;;;;5002484;28;20117;-61
2022/07/30 11:54:05;;;;;;;38.55;6.05;;;24.90;68.00;;;;;;4998024;28;20115;-61
2022/07/30 11:56:30;;;;;;;46.83;6.72;;;24.90;67.70;;;;;;4985471;28;20044;-61
2022/07/30 11:59:06;;;;;;;39.50;6.35;;;24.90;67.50;;;;;;4980936;28;20128;-61
2022/07/30 12:01:32;;;;;;;48.50;6.55;;;24.90;67.40;;;;;;5002120;28;20033;-60
2022/07/30 12:04:00;;;;;;;30.38;5.32;;;25.00;67.10;;;;;;4996733;28;20592;-61
2022/07/30 12:06:26;;;;;;;42.03;5.40;;;25.00;66.70;;;;;;5000052;28;20639;-61
2022/07/30 12:08:52;;;;;;;37.40;6.10;;;24.90;66.80;;;;;;4981767;28;20253;-61
2022/07/30 12:11:17;;;;;;;47.10;5.55;;;25.10;66.20;;;;;;4997688;28;20041;-61
2022/07/30 12:13:43;;;;;;;48.70;6.32;;;25.10;65.90;;;;;;4999760;28;20064;-61
2022/07/30 12:16:09;;;;;;;61.15;7.40;;;25.20;65.70;;;;;;5015960;28;20022;-61
2022/07/30 12:18:35;;;;;;;41.35;5.25;;;25.20;65.40;;;;;;4997696;28;20064;-61
2022/07/30 12:21:02;;;;;;;36.65;5.75;;;25.20;65.20;;;;;;4982322;28;20046;-61
2022/07/30 12:23:28;;;;;;;40.05;5.47;;;25.30;65.30;;;;;;5000462;28;20032;-61
2022/07/30 12:25:54;;;;;;;76.93;8.80;;;25.30;64.90;;;;;;4997865;28;20030;-61
2022/07/30 12:28:30;;;;;;;56.53;6.40;;;25.30;65.20;;;;;;4994042;28;20038;-61
2022/07/30 12:30:56;;;;;;;49.55;5.93;;;25.30;64.80;;;;;;4999411;28;20186;-61
2022/07/30 12:33:22;;;;;;;43.17;5.78;;;25.30;64.80;;;;;;4995521;28;20030;-61
2022/07/30 12:35:55;;;;;;;34.88;4.93;;;25.40;64.60;;;;;;5011128;28;20032;-60
2022/07/30 12:38:22;;;;;;;46.20;6.10;;;25.50;64.10;;;;;;4985020;28;20042;-61
2022/07/30 12:40:59;;;;;;;37.72;5.70;;;25.60;63.60;;;;;;4999705;28;20568;-60
2022/07/30 12:43:49;;;;;;;55.50;5.22;;;25.70;63.30;;;;;;5000980;28;20041;-61